Time;durP1;ratioP1;P1;durP2;ratioP2;P2;SDS_P1;SDS_P2;PMS_P1;PMS_P2;Temp;Humidity;BMP_temperature;BMP_pressure;BME280_temperature;BME280_humidity;BME280_pressure;Samples;Min_cycle;Max_cycle;Signal;HPM_P1;HPM_P2
2022/04/13 00:02:22;;;;;;;2.15;1.40;;;;;;;13.66;58.67;101045.69;5016703;28;20121;-86
2022/04/13 00:04:47;;;;;;;1.40;1.30;;;;;;;13.63;59.42;101048.38;5014284;28;20108;-86
2022/04/13 00:07:13;;;;;;;1.90;1.27;;;;;;;13.59;58.51;101050.19;5015353;28;20030;-86
2022/04/13 00:09:38;;;;;;;0.90;0.90;;;;;;;13.55;58.34;101038.13;5014608;28;20033;-86
2022/04/13 00:12:04;;;;;;;1.87;1.00;;;;;;;13.51;58.43;101047.78;5014487;28;20029;-86
2022/04/13 00:14:35;;;;;;;1.57;1.33;;;;;;;13.49;58.55;101046.09;5022731;28;20501;-86
2022/04/13 00:17:00;;;;;;;1.25;1.15;;;;;;;13.46;58.97;101051.38;5034341;28;20026;-85
2022/04/13 00:19:26;;;;;;;1.73;1.60;;;;;;;13.41;59.54;101049.72;5034539;28;20083;-87
2022/04/13 00:21:51;;;;;;;1.33;1.23;;;;;;;13.37;59.13;101058.50;5034681;28;20068;-87
2022/04/13 00:24:16;;;;;;;1.40;1.30;;;;;;;13.33;58.64;101054.25;5033825;28;20470;-87
2022/04/13 00:26:42;;;;;;;1.20;1.10;;;;;;;13.30;58.81;101049.09;5033920;28;20053;-86
2022/04/13 00:29:07;;;;;;;1.67;1.47;;;;;;;13.26;59.88;101058.75;5034774;28;20026;-86
2022/04/13 00:31:33;;;;;;;3.27;1.50;;;;;;;13.20;61.40;101053.69;5034161;28;20063;-86
2022/04/13 00:33:58;;;;;;;1.50;1.40;;;;;;;13.17;61.17;101058.13;5033866;28;20112;-87
2022/04/13 00:36:23;;;;;;;1.50;1.40;;;;;;;13.12;60.05;101056.47;5034502;28;20025;-86
2022/04/13 00:38:49;;;;;;;1.67;1.50;;;;;;;13.10;60.42;101065.22;5028640;28;20030;-86
2022/04/13 00:41:14;;;;;;;2.30;1.57;;;;;;;13.07;60.44;101067.88;5014325;28;20026;-86
2022/04/13 00:43:40;;;;;;;1.80;1.60;;;;;;;13.04;61.40;101068.81;5014358;28;20152;-86
2022/04/13 00:46:05;;;;;;;1.50;1.40;;;;;;;13.02;60.47;101069.72;5013277;28;20034;-86
2022/04/13 00:48:39;;;;;;;1.07;1.00;;;;;;;13.01;60.35;101081.91;5014642;28;20021;-86
2022/04/13 00:51:05;;;;;;;1.27;1.10;;;;;;;12.98;60.54;101075.00;5014520;28;20026;-86
2022/04/13 00:53:33;;;;;;;1.40;1.30;;;;;;;12.97;60.92;101075.91;5013520;28;20048;-87
2022/04/13 00:55:59;;;;;;;1.40;1.10;;;;;;;12.95;60.06;101085.50;5013877;28;20025;-86
2022/04/13 00:58:31;;;;;;;1.10;1.00;;;;;;;12.94;60.85;101085.53;5014173;28;20355;-87
2022/04/13 01:00:57;;;;;;;0.98;0.98;;;;;;;12.91;60.29;101096.00;5013142;28;20034;-87
2022/04/13 01:03:24;;;;;;;1.50;1.40;;;;;;;12.88;62.30;101093.47;5014130;28;20241;-87
2022/04/13 01:05:51;;;;;;;1.63;1.15;;;;;;;12.86;61.11;101090.03;5013930;28;20022;-86
2022/04/13 01:08:18;;;;;;;1.83;1.60;;;;;;;12.84;61.32;101103.09;5013246;28;20029;-86
2022/04/13 01:10:48;;;;;;;1.58;1.33;;;;;;;12.79;61.56;101100.59;5024144;28;20041;-86
2022/04/13 01:13:15;;;;;;;1.70;1.27;;;;;;;12.79;62.15;101104.91;5033730;28;20101;-87
2022/04/13 01:15:41;;;;;;;1.42;1.05;;;;;;;12.78;61.91;101111.88;5032882;28;20040;-86
2022/04/13 01:18:06;;;;;;;1.67;1.57;;;;;;;12.75;61.63;101106.72;5033341;28;20409;-86
2022/04/13 01:20:34;;;;;;;1.53;1.43;;;;;;;12.76;61.40;101118.03;5032687;28;20029;-87
2022/04/13 01:23:00;;;;;;;1.30;1.20;;;;;;;12.75;61.85;101124.13;5032914;28;20104;-86
2022/04/13 01:25:25;;;;;;;1.00;1.00;;;;;;;12.73;62.97;101128.50;5033266;28;20132;-86
2022/04/13 01:27:53;;;;;;;1.43;1.33;;;;;;;12.68;64.05;101123.38;5032396;28;20088;-86
2022/04/13 01:30:18;;;;;;;1.65;1.52;;;;;;;12.66;61.32;101140.78;5033213;28;20470;-87
2022/04/13 01:32:44;;;;;;;1.50;1.40;;;;;;;12.66;62.49;101140.78;5032741;28;20068;-86
2022/04/13 01:35:09;;;;;;;1.60;1.50;;;;;;;12.66;62.81;101136.44;5031973;28;20026;-87
2022/04/13 01:37:34;;;;;;;1.60;1.50;;;;;;;12.65;63.56;101149.47;5031466;28;20145;-86
2022/04/13 01:40:01;;;;;;;2.10;1.50;;;;;;;12.65;63.51;101145.13;5031530;28;20068;-87
2022/04/13 01:42:26;;;;;;;2.25;1.50;;;;;;;12.65;65.48;101141.66;5032508;28;20382;-86
2022/04/13 01:44:51;;;;;;;1.50;1.40;;;;;;;12.67;62.84;101155.50;5025586;28;20026;-86
2022/04/13 01:47:16;;;;;;;1.90;1.60;;;;;;;12.68;62.68;101152.03;5013563;28;20053;-87
2022/04/13 01:49:42;;;;;;;1.17;1.10;;;;;;;12.67;64.42;101155.50;5012299;28;20052;-86
2022/04/13 01:52:09;;;;;;;1.93;1.60;;;;;;;12.68;62.92;101165.03;5013185;28;20030;-86
2022/04/13 01:54:35;;;;;;;1.13;1.05;;;;;;;12.70;63.39;101165.00;5013470;28;20026;-86
2022/04/13 01:57:00;;;;;;;1.63;1.38;;;;;;;12.67;63.81;101163.31;5020070;28;20143;-86
2022/04/13 01:59:26;;;;;;;2.47;1.43;;;;;;;12.67;63.47;101155.50;5033135;28;20488;-87
2022/04/13 02:01:51;;;;;;;1.30;1.20;;;;;;;12.67;63.34;101161.56;5032467;28;20048;-87
2022/04/13 02:04:16;;;;;;;2.07;1.63;;;;;;;12.66;63.49;101161.59;5032213;28;20473;-86
2022/04/13 02:06:42;;;;;;;2.03;1.57;;;;;;;12.65;63.17;101159.88;5021168;28;20033;-86
2022/04/13 02:09:07;;;;;;;1.10;1.10;;;;;;;12.66;62.75;101164.22;5013103;28;20485;-87
2022/04/13 02:11:32;;;;;;;1.57;1.47;;;;;;;12.65;62.93;101165.97;5012279;28;20076;-87
2022/04/13 02:13:58;;;;;;;1.53;1.40;;;;;;;12.64;62.65;101173.78;5012924;28;20026;-87
2022/04/13 02:16:23;;;;;;;1.77;1.67;;;;;;;12.62;62.40;101170.34;5013189;28;20034;-86
2022/04/13 02:18:48;;;;;;;1.70;1.60;;;;;;;12.62;62.46;101170.34;5011973;28;20410;-87
2022/04/13 02:21:13;;;;;;;2.07;1.67;;;;;;;12.60;63.32;101178.19;5012754;28;20037;-86
2022/04/13 02:23:39;;;;;;;2.00;1.80;;;;;;;12.57;63.71;101186.06;5012003;28;20033;-85
2022/04/13 02:26:04;;;;;;;1.60;1.50;;;;;;;12.54;63.98;101182.66;5012898;28;20441;-87
2022/04/13 02:28:29;;;;;;;1.80;1.50;;;;;;;12.51;63.86;101186.19;5012842;28;20026;-86
2022/04/13 02:30:54;;;;;;;1.80;1.70;;;;;;;12.48;65.22;101175.81;5011841;28;20064;-87
2022/04/13 02:33:21;;;;;;;2.63;1.90;;;;;;;12.45;65.55;101178.47;5012969;28;20030;-87
2022/04/13 02:35:46;;;;;;;1.70;1.60;;;;;;;12.42;63.88;101187.19;5032337;28;20457;-87
2022/04/13 02:38:11;;;;;;;2.23;1.73;;;;;;;12.40;63.05;101185.50;5031624;28;20068;-86
2022/04/13 02:40:37;;;;;;;1.90;1.80;;;;;;;12.39;65.01;101187.25;5032613;28;20022;-86
2022/04/13 02:43:02;;;;;;;1.80;1.70;;;;;;;12.36;64.29;101189.91;5032446;28;20025;-87
2022/04/13 02:45:27;;;;;;;1.73;1.60;;;;;;;12.34;64.17;101189.09;5032105;28;20029;-87
2022/04/13 02:47:52;;;;;;;2.37;1.73;;;;;;;12.31;64.65;101186.53;5032023;28;20026;-86
2022/04/13 02:50:18;;;;;;;2.60;1.77;;;;;;;12.26;64.92;101191.81;5032519;28;20034;-87
2022/04/13 02:52:43;;;;;;;3.47;2.10;;;;;;;12.24;64.59;101197.94;5031384;28;20029;-87
2022/04/13 02:55:10;;;;;;;4.47;2.00;;;;;;;12.22;64.40;101210.09;5032355;28;20381;-86
2022/04/13 02:57:36;;;;;;;1.90;1.70;;;;;;;12.18;65.32;101210.16;5030823;28;20049;-87
2022/04/13 03:00:03;;;;;;;2.23;1.90;;;;;;;12.15;64.55;101207.63;5031930;28;20453;-87
2022/04/13 03:02:29;;;;;;;;;;;;;;;12.11;65.20;101207.66;5032614;28;20055;-87
2022/04/13 03:04:54;;;;;;;3.22;1.92;;;;;;;12.07;65.30;101203.41;5018804;28;20004;-86
2022/04/13 03:07:22;;;;;;;2.10;1.87;;;;;;;12.02;64.42;101213.88;5011891;28;20018;-87
2022/04/13 03:09:48;;;;;;;1.90;1.80;;;;;;;11.97;64.42;101208.72;5015881;28;20022;-87
2022/04/13 03:12:13;;;;;;;2.10;1.90;;;;;;;11.93;64.59;101207.03;5016464;28;20033;-87
2022/04/13 03:14:40;;;;;;;3.40;1.90;;;;;;;11.87;65.48;101208.00;5015300;28;20026;-86
2022/04/13 03:17:05;;;;;;;2.40;1.90;;;;;;;11.84;64.92;101212.38;5016164;28;20029;-86
2022/04/13 03:19:31;;;;;;;2.27;1.97;;;;;;;11.80;64.68;101208.09;5015684;28;20029;-87
2022/04/13 03:21:56;;;;;;;2.00;1.90;;;;;;;11.75;64.80;101213.38;5032434;28;20044;-86
2022/04/13 03:24:22;;;;;;;3.63;2.20;;;;;;;11.70;64.71;101205.63;5035856;28;20037;-87
2022/04/13 03:26:48;;;;;;;2.70;2.17;;;;;;;11.65;64.81;101206.59;5035293;28;20041;-86
2022/04/13 03:29:13;;;;;;;2.55;2.20;;;;;;;11.60;67.27;101206.66;5034880;28;20071;-86
2022/04/13 03:31:39;;;;;;;2.63;2.13;;;;;;;11.53;65.54;101205.03;5035183;28;20417;-86
2022/04/13 03:34:06;;;;;;;2.47;2.17;;;;;;;11.46;67.62;101206.84;5035159;28;20043;-86
2022/04/13 03:36:32;;;;;;;2.38;2.05;;;;;;;11.40;66.31;101212.09;5035424;28;20082;-87
2022/04/13 03:38:57;;;;;;;3.03;2.33;;;;;;;11.33;68.95;101205.28;5030742;28;20030;-86
2022/04/13 03:41:22;;;;;;;2.60;2.00;;;;;;;11.27;66.63;101212.25;5014799;28;20026;-86
2022/04/13 03:43:48;;;;;;;2.63;2.00;;;;;;;11.22;66.47;101210.59;5015242;28;20160;-87
2022/04/13 03:46:13;;;;;;;2.73;2.20;;;;;;;11.18;65.99;101209.78;5015677;28;20041;-86
2022/04/13 03:48:41;;;;;;;4.40;2.47;;;;;;;11.15;65.49;101215.00;5014622;28;20026;-86
2022/04/13 03:51:06;;;;;;;3.50;2.30;;;;;;;11.13;65.98;101221.97;5015269;28;20030;-87
2022/04/13 03:53:31;;;;;;;3.50;2.37;;;;;;;11.08;65.55;101229.81;5015734;28;20466;-86
2022/04/13 03:55:57;;;;;;;2.73;2.30;;;;;;;11.02;66.05;101223.84;5014500;28;20032;-86
2022/04/13 03:58:22;;;;;;;3.57;2.40;;;;;;;10.95;66.32;101223.88;5025620;28;20025;-87
2022/04/13 04:00:47;;;;;;;4.23;2.40;;;;;;;10.90;67.93;101222.22;5035033;28;20026;-86
2022/04/13 04:03:12;;;;;;;2.20;2.00;;;;;;;10.84;67.14;101227.47;5034371;28;20190;-87
2022/04/13 04:05:38;;;;;;;2.83;2.40;;;;;;;10.81;66.44;101228.34;5034661;28;20032;-86
2022/04/13 04:08:04;;;;;;;3.00;2.53;;;;;;;10.78;66.57;101229.25;5034680;28;20022;-87
2022/04/13 04:10:29;;;;;;;3.40;2.50;;;;;;;10.75;66.56;101226.69;5034157;28;20489;-86
2022/04/13 04:12:55;;;;;;;2.70;2.27;;;;;;;10.73;66.70;101231.03;5034737;28;20026;-86
2022/04/13 04:15:20;;;;;;;4.37;2.50;;;;;;;10.69;66.72;101244.06;5023796;28;20025;-86
2022/04/13 04:17:46;;;;;;;3.20;2.50;;;;;;;10.67;66.85;101244.06;5013821;28;20038;-87
2022/04/13 04:20:11;;;;;;;3.33;2.60;;;;;;;10.62;67.13;101246.72;5014158;28;20030;-87
2022/04/13 04:22:36;;;;;;;3.47;2.50;;;;;;;10.58;67.20;101254.53;5014855;28;20458;-87
2022/04/13 04:25:04;;;;;;;4.30;2.87;;;;;;;10.53;67.26;101248.53;5014143;28;20021;-86
2022/04/13 04:27:29;;;;;;;2.92;2.30;;;;;;;10.48;66.77;101252.03;5014527;28;20053;-86
2022/04/13 04:29:54;;;;;;;2.67;2.23;;;;;;;10.45;68.29;101252.03;5014464;28;20030;-87
2022/04/13 04:32:19;;;;;;;2.57;2.37;;;;;;;10.41;68.07;101254.69;5015091;28;20041;-87
2022/04/13 04:34:45;;;;;;;2.47;2.27;;;;;;;10.35;67.58;101259.03;5014094;28;20030;-86
2022/04/13 04:37:10;;;;;;;3.17;2.70;;;;;;;10.34;67.60;101259.03;5014687;28;20116;-86
2022/04/13 04:39:35;;;;;;;3.33;2.50;;;;;;;10.32;71.33;101258.16;5014126;28;20026;-87
2022/04/13 04:42:03;;;;;;;3.03;2.50;;;;;;;10.27;68.89;101258.19;5014365;28;20117;-87
2022/04/13 04:44:29;;;;;;;3.15;2.55;;;;;;;10.27;68.35;101267.72;5013650;28;20040;-86
2022/04/13 04:46:54;;;;;;;3.33;2.50;;;;;;;10.25;68.47;101274.66;5015297;28;20026;-86
2022/04/13 04:49:19;;;;;;;3.40;2.57;;;;;;;10.25;68.39;101280.69;5014753;28;20374;-86
2022/04/13 04:51:44;;;;;;;3.63;2.50;;;;;;;10.27;68.23;101288.47;5032851;28;20033;-87
2022/04/13 04:54:10;;;;;;;5.03;2.77;;;;;;;10.27;68.81;101285.88;5033686;28;20076;-86
2022/04/13 04:56:35;;;;;;;2.97;2.40;;;;;;;10.27;68.84;101289.34;5034153;28;20022;-86
2022/04/13 04:59:01;;;;;;;4.97;2.80;;;;;;;10.28;68.62;101295.41;5033146;28;20029;-87
2022/04/13 05:01:27;;;;;;;3.53;2.60;;;;;;;10.28;68.69;101298.84;5034038;28;20030;-86
2022/04/13 05:03:52;;;;;;;4.25;2.70;;;;;;;10.29;68.65;101305.75;5033505;28;20112;-87
2022/04/13 05:06:21;;;;;;;2.50;2.30;;;;;;;10.27;69.49;101299.72;5024215;28;20105;-87
2022/04/13 05:08:46;;;;;;;3.28;2.17;;;;;;;10.27;70.33;101304.06;5023257;28;20036;-86
2022/04/13 05:11:12;;;;;;;3.90;2.30;;;;;;;10.25;71.01;101308.38;5033421;28;20026;-87
2022/04/13 05:13:38;;;;;;;2.80;2.10;;;;;;;10.24;69.67;101311.84;5032816;28;20072;-86
2022/04/13 05:16:05;;;;;;;2.83;2.30;;;;;;;10.27;69.00;101307.50;5033332;28;20047;-86
2022/04/13 05:18:36;;;;;;;2.80;2.40;;;;;;;10.29;69.88;101316.13;5033453;28;20433;-86
2022/04/13 05:21:03;;;;;;;2.75;2.13;;;;;;;10.32;69.89;101317.84;5032635;28;20034;-87
2022/04/13 05:23:31;;;;;;;2.63;2.10;;;;;;;10.35;69.56;101323.00;5033718;28;20021;-87
2022/04/13 05:25:56;;;;;;;4.35;2.40;;;;;;;10.40;69.05;101320.41;5031633;28;20132;-87
2022/04/13 05:28:21;;;;;;;2.87;2.20;;;;;;;10.45;69.85;101331.63;5032624;28;20109;-86
2022/04/13 05:30:47;;;;;;;3.07;2.30;;;;;;;10.51;69.46;101326.38;5032979;28;20036;-87
2022/04/13 05:33:13;;;;;;;4.43;2.50;;;;;;;10.59;70.26;101322.00;5033339;28;20033;-87
2022/04/13 05:35:41;;;;;;;3.00;2.40;;;;;;;10.68;69.69;101330.59;5032310;28;20067;-86
2022/04/13 05:38:06;;;;;;;2.67;2.30;;;;;;;10.76;69.87;101336.59;5033294;28;20056;-86
2022/04/13 05:40:32;;;;;;;2.50;2.20;;;;;;;10.81;70.16;101337.41;5033226;28;20017;-87
2022/04/13 05:42:57;;;;;;;3.27;2.30;;;;;;;10.89;69.55;101347.72;5024994;28;20149;-87
2022/04/13 05:45:23;;;;;;;3.47;2.30;;;;;;;10.97;70.07;101357.19;5013527;28;20034;-87
2022/04/13 05:47:48;;;;;;;2.57;2.10;;;;;;;11.02;70.68;101349.34;5012274;28;20033;-86
2022/04/13 05:50:14;;;;;;;2.30;2.10;;;;;;;11.07;70.59;101355.38;5013524;28;20087;-86
2022/04/13 05:52:41;;;;;;;2.50;2.20;;;;;;;11.13;70.77;101349.25;5013350;28;20025;-87
2022/04/13 05:55:07;;;;;;;;;;;;;;;11.19;70.78;101346.59;5013110;28;20026;-86
2022/04/13 05:57:32;;;;;;;2.50;2.30;;;;;;;11.25;70.34;101348.25;5013439;28;19925;-87
2022/04/13 05:59:57;;;;;;;2.87;2.30;;;;;;;11.32;70.73;101352.50;5015787;28;20033;-86
2022/04/13 06:02:23;;;;;;;2.80;2.20;;;;;;;11.41;71.18;101357.63;5031768;28;20033;-85
2022/04/13 06:04:48;;;;;;;2.30;2.10;;;;;;;11.50;70.77;101363.63;5032264;28;20044;-91
2022/04/13 06:07:13;;;;;;;2.63;2.20;;;;;;;11.60;70.52;101373.03;5028843;28;20123;-91
2022/04/13 06:09:39;;;;;;;2.73;2.13;;;;;;;11.70;71.29;101376.41;5014156;28;20034;-91
2022/04/13 06:12:04;;;;;;;2.60;2.20;;;;;;;11.77;71.19;101371.97;5013933;28;20030;-90
2022/04/13 06:14:30;;;;;;;2.57;2.13;;;;;;;11.82;70.05;101373.63;5013378;28;20036;-81
2022/04/13 06:16:55;;;;;;;2.63;2.40;;;;;;;11.94;70.28;101379.56;5011851;28;20072;-81
2022/04/13 06:19:20;;;;;;;3.40;2.50;;;;;;;12.03;70.62;101379.50;5013375;28;20351;-81
2022/04/13 06:21:45;;;;;;;3.37;2.60;;;;;;;12.12;70.50;101389.78;5012618;28;20065;-81
2022/04/13 06:24:11;;;;;;;3.03;2.33;;;;;;;12.22;70.60;101387.91;5013015;28;20045;-81
2022/04/13 06:26:37;;;;;;;3.03;2.50;;;;;;;12.30;70.26;101391.28;5012388;28;20057;-81
2022/04/13 06:29:02;;;;;;;3.47;2.40;;;;;;;12.38;70.52;101396.38;5013034;28;20037;-81
2022/04/13 06:31:28;;;;;;;3.00;2.50;;;;;;;12.47;70.06;101397.97;5011938;28;20018;-81
2022/04/13 06:33:53;;;;;;;5.33;3.03;;;;;;;12.54;71.40;101393.53;5012674;28;20108;-81
2022/04/13 06:36:19;;;;;;;3.63;2.57;;;;;;;12.57;70.94;101391.75;5013089;28;20405;-81
2022/04/13 06:38:44;;;;;;;3.67;2.60;;;;;;;12.58;71.15;101392.63;5011863;28;20032;-81
2022/04/13 06:41:10;;;;;;;3.13;2.30;;;;;;;12.63;70.31;101396.00;5012600;28;20022;-80
2022/04/13 06:43:37;;;;;;;2.78;2.40;;;;;;;12.65;70.45;101395.13;5015696;28;20073;-81
2022/04/13 06:46:02;;;;;;;2.67;2.25;;;;;;;12.67;70.20;101400.28;5015741;28;20034;-81
2022/04/13 06:48:30;;;;;;;2.80;2.40;;;;;;;12.70;70.86;101408.06;5016874;28;20025;-81
2022/04/13 06:50:56;;;;;;;3.72;2.35;;;;;;;12.70;71.08;101410.69;5015583;28;20406;-81
2022/04/13 06:53:21;;;;;;;3.13;2.60;;;;;;;12.71;70.99;101415.00;5016508;28;20060;-81
2022/04/13 06:55:47;;;;;;;2.83;2.47;;;;;;;12.74;70.40;101416.69;5016164;28;20030;-81
2022/04/13 06:58:13;;;;;;;2.50;2.30;;;;;;;12.82;70.67;101428.72;5015621;28;20018;-81
2022/04/13 07:00:41;;;;;;;3.30;2.67;;;;;;;12.90;70.47;101433.78;5016935;28;20383;-87
2022/04/13 07:03:07;;;;;;;2.80;2.50;;;;;;;12.96;71.40;101436.31;5016455;28;20033;-87
2022/04/13 07:05:32;;;;;;;5.30;3.23;;;;;;;13.02;74.07;101444.91;5015835;28;20053;-85
2022/04/13 07:07:59;;;;;;;6.00;3.67;;;;;;;13.04;71.82;101451.84;5016184;28;20497;-83
2022/04/13 07:10:27;;;;;;;4.57;3.30;;;;;;;13.04;71.24;101458.78;5016426;28;20022;-82
2022/04/13 07:12:54;;;;;;;3.33;2.60;;;;;;;13.07;72.39;101443.94;5015668;28;20398;-82
2022/04/13 07:15:19;;;;;;;4.28;2.90;;;;;;;13.10;72.40;101454.31;5016251;28;20113;-81
2022/04/13 07:17:46;;;;;;;4.53;3.17;;;;;;;13.10;71.51;101453.47;5016234;28;20061;-85
2022/04/13 07:20:12;;;;;;;4.20;2.92;;;;;;;13.11;71.09;101456.06;5029140;28;20108;-86
2022/04/13 07:22:53;;;;;;;2.70;2.40;;;;;;;13.15;71.19;101458.63;5035920;28;20038;-82
2022/04/13 07:25:20;;;;;;;2.85;2.55;;;;;;;13.19;71.81;101475.91;5036125;28;20041;-87
2022/04/13 07:27:47;;;;;;;3.25;2.63;;;;;;;13.28;72.67;101476.63;5033218;28;20026;-87
2022/04/13 07:30:13;;;;;;;4.65;3.28;;;;;;;13.36;71.68;101486.94;5035735;28;20025;-87
2022/04/13 07:32:39;;;;;;;5.35;3.33;;;;;;;13.38;72.42;101479.97;5035863;28;20040;-88
2022/04/13 07:35:05;;;;;;;5.67;3.30;;;;;;;13.42;71.58;101486.84;5027964;28;20033;-88
2022/04/13 07:37:31;;;;;;;3.78;2.80;;;;;;;13.52;71.60;101490.16;5018286;28;20056;-86
2022/04/13 07:39:57;;;;;;;4.77;3.20;;;;;;;13.64;72.29;101489.09;5035047;28;20041;-86
2022/04/13 07:42:24;;;;;;;4.80;3.17;;;;;;;13.72;71.65;101491.56;5035296;28;20148;-85
2022/04/13 07:44:49;;;;;;;3.67;2.92;;;;;;;13.79;71.62;101485.34;5035351;28;20371;-86
2022/04/13 07:47:14;;;;;;;4.30;2.73;;;;;;;13.86;71.88;101483.47;5034952;28;20160;-85
2022/04/13 07:49:43;;;;;;;5.17;3.07;;;;;;;13.92;72.42;101491.19;5035144;28;20030;-85
2022/04/13 07:52:09;;;;;;;7.55;4.10;;;;;;;13.96;73.12;101484.16;5035247;28;20029;-85
2022/04/13 07:54:35;;;;;;;6.47;3.60;;;;;;;13.98;71.78;101487.63;5033038;28;20384;-85
2022/04/13 07:57:00;;;;;;;7.23;4.00;;;;;;;14.01;73.17;101488.41;5032788;28;20299;-86
2022/04/13 07:59:27;;;;;;;6.00;3.70;;;;;;;14.05;71.87;101491.81;5035394;28;20028;-86
2022/04/13 08:01:53;;;;;;;6.68;3.60;;;;;;;14.11;72.33;101486.50;5033933;28;20048;-86
2022/04/13 08:04:18;;;;;;;8.67;4.97;;;;;;;14.19;73.30;101491.53;5035128;28;20493;-87
2022/04/13 08:06:43;;;;;;;9.47;5.43;;;;;;;14.28;72.85;101495.72;5034548;28;20040;-86
2022/04/13 08:09:08;;;;;;;8.17;4.70;;;;;;;14.42;72.61;101504.13;5032323;28;20435;-86
2022/04/13 08:11:34;;;;;;;6.87;4.47;;;;;;;14.62;71.78;101508.06;5034886;28;20037;-86
2022/04/13 08:13:59;;;;;;;8.07;4.70;;;;;;;14.78;71.67;101509.50;5033748;28;20021;-86
2022/04/13 08:16:24;;;;;;;8.20;4.53;;;;;;;14.89;70.79;101513.63;5034147;28;20040;-87
2022/04/13 08:18:49;;;;;;;7.93;4.10;;;;;;;14.91;69.95;101504.84;5034435;28;20038;-86
2022/04/13 08:21:15;;;;;;;8.13;4.43;;;;;;;14.98;70.43;101516.88;5034724;28;20029;-86
2022/04/13 08:23:40;;;;;;;8.93;4.23;;;;;;;15.08;70.60;101516.69;5035140;28;20033;-85
2022/04/13 08:26:05;;;;;;;5.00;3.63;;;;;;;15.20;70.16;101520.75;5033955;28;20045;-83
2022/04/13 08:28:30;;;;;;;7.23;4.33;;;;;;;15.30;69.69;101519.63;5033090;28;20070;-85
2022/04/13 08:30:56;;;;;;;5.40;3.80;;;;;;;15.35;69.42;101524.75;5034475;28;20037;-88
2022/04/13 08:33:22;;;;;;;8.33;4.53;;;;;;;15.41;69.95;101519.38;5035214;28;20022;-89
2022/04/13 08:35:47;;;;;;;6.18;3.92;;;;;;;15.41;69.01;101522.84;5034247;28;20037;-88
2022/04/13 08:38:12;;;;;;;5.20;3.60;;;;;;;15.44;69.28;101524.50;5034620;28;20125;-88
2022/04/13 08:40:59;;;;;;;4.27;3.40;;;;;;;15.47;69.62;101524.44;5021121;28;20033;-89
2022/04/13 08:43:40;;;;;;;11.05;5.97;;;;;;;15.42;69.43;101523.72;5015030;28;20040;-86
2022/04/13 08:46:11;;;;;;;9.43;4.97;;;;;;;15.41;69.13;101519.38;5033661;28;20088;-88
2022/04/13 08:48:39;;;;;;;6.20;4.10;;;;;;;15.45;69.34;101526.22;5033835;28;20048;-90
2022/04/13 08:51:09;;;;;;;7.00;4.68;;;;;;;15.54;69.07;101531.22;5033706;28;20439;-89
2022/04/13 08:53:39;;;;;;;5.40;3.72;;;;;;;15.63;69.37;101539.75;5034951;28;20040;-90
2022/04/13 08:56:08;;;;;;;6.65;4.15;;;;;;;15.70;69.30;101539.56;5035133;28;20488;-92
2022/04/13 08:58:49;;;;;;;10.73;5.80;;;;;;;15.77;68.79;101542.03;5035358;28;20052;-93
2022/04/13 09:01:41;;;;;;;7.45;4.45;;;;;;;15.86;67.72;101539.19;5035208;28;20031;-93
2022/04/13 09:04:10;;;;;;;10.27;6.00;;;;;;;15.90;68.12;101543.44;5034835;28;20033;-92
2022/04/13 09:06:39;;;;;;;14.25;7.80;;;;;;;15.86;68.41;101545.31;5034254;28;20022;-89
2022/04/13 09:09:14;;;;;;;10.30;6.10;;;;;;;15.93;68.79;101543.34;5034880;28;20389;-89
2022/04/13 09:11:40;;;;;;;10.38;5.75;;;;;;;16.05;67.77;101550.03;5027499;28;20446;-94
2022/04/13 09:14:29;;;;;;;9.27;5.38;;;;;;;16.12;67.92;101543.72;5015043;28;20029;-93
2022/04/13 09:16:55;;;;;;;7.38;4.40;;;;;;;16.30;67.97;101547.59;5014985;28;20040;-86
2022/04/13 09:19:21;;;;;;;;;;;;;;;16.45;67.27;101548.91;5014628;28;20034;-90
2022/04/13 09:21:58;;;;;;;9.90;5.50;;;;;;;16.54;67.37;101554.81;5014730;28;20015;-92
2022/04/13 09:24:26;;;;;;;8.63;4.97;;;;;;;16.67;66.84;101558.75;5014883;28;20037;-93
2022/04/13 09:26:51;;;;;;;7.05;4.45;;;;;;;16.74;66.15;101565.56;5014134;28;20044;-93
2022/04/13 09:29:17;;;;;;;9.10;5.70;;;;;;;16.83;65.71;101567.91;5014341;28;20030;-91
2022/04/13 09:31:42;;;;;;;7.70;4.77;;;;;;;16.83;66.16;101570.53;5015431;28;20104;-90
2022/04/13 09:34:08;;;;;;;6.27;4.00;;;;;;;16.89;65.98;101568.63;5023201;28;20025;-91
2022/04/13 09:36:34;;;;;;;5.65;4.03;;;;;;;16.96;66.33;101576.28;5034277;28;20083;-93
2022/04/13 09:38:59;;;;;;;4.73;3.40;;;;;;;16.97;66.19;101578.00;5034322;28;20112;-92
2022/04/13 09:41:36;;;;;;;10.50;5.73;;;;;;;16.91;65.38;101583.41;5020375;28;20378;-93
2022/04/13 09:44:02;;;;;;;6.78;4.55;;;;;;;16.82;65.75;101579.28;5014418;28;20030;-90
2022/04/13 09:46:29;;;;;;;6.80;4.10;;;;;;;16.79;65.82;101587.25;5014565;28;20051;-93
2022/04/13 09:49:11;;;;;;;4.43;3.30;;;;;;;16.74;65.66;101583.91;5013133;28;20038;-90
2022/04/13 09:51:58;;;;;;;6.22;3.97;;;;;;;16.67;66.10;101592.84;5014305;28;20072;-91
2022/04/13 09:54:25;;;;;;;4.55;3.25;;;;;;;16.68;66.80;101598.06;5014048;28;20083;-91
2022/04/13 09:56:50;;;;;;;;;;;;;;;16.70;66.67;101587.50;5014664;28;20022;-92
2022/04/13 09:59:25;;;;;;;4.03;3.20;;;;;;;16.70;66.56;101592.75;5014384;28;19913;-91
2022/04/13 10:01:51;;;;;;;7.00;3.67;;;;;;;16.67;66.09;101592.84;5013289;28;20504;-92
2022/04/13 10:04:26;;;;;;;3.80;2.90;;;;;;;16.68;66.56;101595.44;5014009;28;20304;-92
2022/04/13 10:06:54;;;;;;;3.20;2.60;;;;;;;16.67;66.33;101595.47;5013896;28;20033;-92
2022/04/13 10:09:19;;;;;;;3.50;2.53;;;;;;;16.64;66.47;101601.66;5013520;28;20026;-92
2022/04/13 10:12:03;;;;;;;3.47;2.70;;;;;;;16.63;66.32;101597.31;5014011;28;20022;-92
2022/04/13 10:14:32;;;;;;;3.85;2.90;;;;;;;16.61;65.98;101603.50;5013609;28;20076;-92
2022/04/13 10:17:07;;;;;;;2.90;2.47;;;;;;;16.57;66.39;101601.88;5013167;28;20757;-92
2022/04/13 10:19:34;;;;;;;2.95;2.40;;;;;;;16.54;66.23;101596.72;5014143;28;20022;-92
2022/04/13 10:22:00;;;;;;;;;;;;;;;16.49;66.56;101597.72;5013286;28;20018;-90
2022/04/13 10:24:30;;;;;;;4.78;3.15;;;;;;;16.43;66.63;101594.41;5014014;28;19921;-91
2022/04/13 10:27:02;;;;;;;3.97;2.83;;;;;;;16.40;66.28;101597.97;5013623;28;20069;-91
2022/04/13 10:29:29;;;;;;;3.28;2.60;;;;;;;16.40;66.86;101599.72;5013355;28;20029;-91
2022/04/13 10:32:10;;;;;;;5.90;3.70;;;;;;;16.33;66.64;101605.13;5012820;28;20034;-86
2022/04/13 10:34:47;;;;;;;6.43;3.60;;;;;;;16.28;66.55;101614.03;5012749;28;20030;-88
2022/04/13 10:37:14;;;;;;;6.72;4.05;;;;;;;16.23;66.86;101608.03;5013167;28;20026;-91
2022/04/13 10:39:41;;;;;;;5.05;3.60;;;;;;;16.18;66.83;101610.78;5013389;28;20049;-90
2022/04/13 10:42:09;;;;;;;4.53;3.25;;;;;;;16.17;67.13;101604.69;5013885;28;20046;-91
2022/04/13 10:44:37;;;;;;;3.25;2.83;;;;;;;16.16;67.04;101608.22;5012952;28;20033;-90
2022/04/13 10:47:08;;;;;;;4.97;3.88;;;;;;;16.15;67.83;101622.22;5013564;28;20108;-91
2022/04/13 10:50:03;;;;;;;5.20;3.72;;;;;;;16.10;67.89;101626.69;5013194;28;20057;-90
2022/04/13 10:52:51;;;;;;;5.72;3.80;;;;;;;16.08;67.55;101620.66;4996234;28;20033;-86
2022/04/13 10:55:19;;;;;;;7.28;4.72;;;;;;;16.09;68.86;101618.88;5013086;28;20033;-86
2022/04/13 10:57:59;;;;;;;7.75;4.82;;;;;;;16.09;67.97;101621.50;5011611;28;20029;-86
2022/04/13 11:00:25;;;;;;;6.55;4.63;;;;;;;16.09;68.45;101626.75;5012591;28;20382;-87
2022/04/13 11:02:57;;;;;;;8.23;4.70;;;;;;;16.08;68.25;101633.75;5012129;28;20026;-86
2022/04/13 11:05:27;;;;;;;4.57;3.55;;;;;;;16.03;68.11;101633.88;5011498;28;20030;-85
2022/04/13 11:08:12;;;;;;;3.92;3.30;;;;;;;16.03;68.25;101644.34;5013434;28;20053;-85
2022/04/13 11:10:38;;;;;;;4.90;3.30;;;;;;;16.00;68.58;101643.53;5012168;28;20501;-86
2022/04/13 11:13:04;;;;;;;4.53;3.00;;;;;;;15.95;68.88;101643.66;5013592;28;20512;-86
2022/04/13 11:15:37;;;;;;;4.77;3.30;;;;;;;15.93;69.27;101642.81;5032076;28;20061;-86
2022/04/13 11:18:08;;;;;;;4.25;3.40;;;;;;;15.92;69.83;101642.88;5032137;28;20034;-86
2022/04/13 11:20:33;;;;;;;5.57;4.13;;;;;;;15.88;69.03;101645.56;5031622;28;20041;-86
2022/04/13 11:23:11;;;;;;;7.33;5.10;;;;;;;15.84;68.82;101638.69;5028889;28;20091;-85
2022/04/13 11:25:58;;;;;;;6.18;4.30;;;;;;;15.84;69.09;101643.03;5031027;28;20029;-86
2022/04/13 11:28:28;;;;;;;6.75;4.60;;;;;;;15.82;69.23;101640.47;5030730;28;20099;-90